ELLX METAR and TAF | Updated Today

ELLX METAR

Luxembourg-Findel International Airport

Observation time: 33 min. ago

ELLX 291150Z 34009KT 290V010 9999 FEW038 BKN055 12/02 Q1014 NOSIG

Need help? Read our tutorial on how to read METARs or read the parsed version below.

Luxembourg-Findel International Airport (ELLX) METAR

  • Weather conditions on Sun, 29 May 2022 11:50:00 +0000 (33 min. ago):
  • Present conditions: Dry
  • Clouds: A few at 1158 meters; broken sky at 1676 meters
  • Visibility: Greater than 10 km
  • Wind: 340 degrees at 9 knots
  • Temperature: 12 celsius
  • Dew point: 2 celsius
  • Pressure: 1014 millibars
  • Remarks: None


Useful to know...

ELLX TAF

Luxembourg-Findel International Airport

TAF ELLX 291100Z 2912/3018 34007KT 9999 SCT045 PROB30 TEMPO 2912/2918 34011KT FEW040TCU
Observation time: 83 min. ago
Need help? Read our tutorial on how to read TAFs or read the parsed version below.

Parsed version of TAF for Luxembourg-Findel International Airport (ELLX)

  • From 29 May at 12:00 UTC, to day 30 of the month at 18:00 UTC
  • Clouds: Scattered at 1372 meters
  • Visibility: Greater than 10 km
  • Wind: 340 degrees at 7
  • Expected to arise temporarily, from 29 May at 12:00 UTC, to day 29 of the month at 18:00 UTC
    Probability of 30%
  • Clouds: A few at 1219 meters, towering cumulus
  • Wind: 340 degrees at 11